sensor_id;sensor_type;location;lat;lon;timestamp;P1;durP1;ratioP1;P2;durP2;ratioP2
78648;SDS011;67962;47.310;9.642;2024-01-15T00:01:33;32.70;;;17.15;;
78648;SDS011;67962;47.310;9.642;2024-01-15T00:03:59;34.63;;;16.90;;
78648;SDS011;67962;47.310;9.642;2024-01-15T00:06:25;33.38;;;16.45;;
78648;SDS011;67962;47.310;9.642;2024-01-15T00:08:52;32.38;;;15.95;;
78648;SDS011;67962;47.310;9.642;2024-01-15T00:11:17;29.75;;;15.10;;
78648;SDS011;67962;47.310;9.642;2024-01-15T00:13:43;31.65;;;16.20;;
78648;SDS011;67962;47.310;9.642;2024-01-15T00:16:09;29.85;;;15.23;;
78648;SDS011;67962;47.310;9.642;2024-01-15T00:18:35;29.67;;;14.48;;
78648;SDS011;67962;47.310;9.642;2024-01-15T00:21:01;29.45;;;15.80;;
78648;SDS011;67962;47.310;9.642;2024-01-15T00:23:26;29.92;;;15.85;;
78648;SDS011;67962;47.310;9.642;2024-01-15T00:25:52;29.90;;;14.77;;
78648;SDS011;67962;47.310;9.642;2024-01-15T00:28:18;24.60;;;13.30;;
78648;SDS011;67962;47.310;9.642;2024-01-15T00:30:43;27.35;;;14.45;;
78648;SDS011;67962;47.310;9.642;2024-01-15T00:33:09;31.90;;;14.05;;
78648;SDS011;67962;47.310;9.642;2024-01-15T00:35:37;26.67;;;13.63;;
78648;SDS011;67962;47.310;9.642;2024-01-15T00:38:03;25.48;;;14.18;;
78648;SDS011;67962;47.310;9.642;2024-01-15T00:40:28;28.77;;;13.73;;
78648;SDS011;67962;47.310;9.642;2024-01-15T00:42:54;25.40;;;13.73;;
78648;SDS011;67962;47.310;9.642;2024-01-15T00:45:20;21.83;;;11.95;;
78648;SDS011;67962;47.310;9.642;2024-01-15T00:47:45;22.55;;;12.20;;
78648;SDS011;67962;47.310;9.642;2024-01-15T00:50:11;24.05;;;12.75;;
78648;SDS011;67962;47.310;9.642;2024-01-15T00:52:37;23.80;;;12.52;;
78648;SDS011;67962;47.310;9.642;2024-01-15T00:55:03;22.83;;;12.43;;
78648;SDS011;67962;47.310;9.642;2024-01-15T00:57:29;23.65;;;12.82;;
78648;SDS011;67962;47.310;9.642;2024-01-15T00:59:55;21.95;;;11.70;;
78648;SDS011;67962;47.310;9.642;2024-01-15T01:02:20;24.42;;;12.48;;
78648;SDS011;67962;47.310;9.642;2024-01-15T01:04:46;23.25;;;11.82;;
78648;SDS011;67962;47.310;9.642;2024-01-15T01:07:11;21.88;;;10.98;;
78648;SDS011;67962;47.310;9.642;2024-01-15T01:09:37;18.10;;;10.57;;
78648;SDS011;67962;47.310;9.642;2024-01-15T01:12:03;19.75;;;10.38;;
78648;SDS011;67962;47.310;9.642;2024-01-15T01:14:29;16.73;;;9.25;;
78648;SDS011;67962;47.310;9.642;2024-01-15T01:16:54;14.02;;;8.55;;
78648;SDS011;67962;47.310;9.642;2024-01-15T01:19:20;17.65;;;8.85;;
78648;SDS011;67962;47.310;9.642;2024-01-15T01:21:46;13.60;;;7.88;;
78648;SDS011;67962;47.310;9.642;2024-01-15T01:24:11;14.82;;;8.25;;
78648;SDS011;67962;47.310;9.642;2024-01-15T01:26:37;16.55;;;7.90;;
78648;SDS011;67962;47.310;9.642;2024-01-15T01:29:03;14.85;;;7.10;;
78648;SDS011;67962;47.310;9.642;2024-01-15T01:31:28;12.75;;;6.88;;
78648;SDS011;67962;47.310;9.642;2024-01-15T01:33:54;9.00;;;5.25;;
78648;SDS011;67962;47.310;9.642;2024-01-15T01:36:20;11.90;;;6.20;;
78648;SDS011;67962;47.310;9.642;2024-01-15T01:38:45;11.82;;;6.18;;
78648;SDS011;67962;47.310;9.642;2024-01-15T01:41:11;8.50;;;5.55;;
78648;SDS011;67962;47.310;9.642;2024-01-15T01:43:37;11.50;;;5.63;;
78648;SDS011;67962;47.310;9.642;2024-01-15T01:46:02;11.70;;;6.18;;
78648;SDS011;67962;47.310;9.642;2024-01-15T01:48:28;11.40;;;6.30;;
78648;SDS011;67962;47.310;9.642;2024-01-15T01:50:57;14.30;;;6.93;;
78648;SDS011;67962;47.310;9.642;2024-01-15T01:53:24;10.38;;;5.95;;
78648;SDS011;67962;47.310;9.642;2024-01-15T01:55:51;10.73;;;5.95;;
78648;SDS011;67962;47.310;9.642;2024-01-15T01:58:18;13.18;;;6.05;;
78648;SDS011;67962;47.310;9.642;2024-01-15T02:00:45;10.82;;;6.53;;
78648;SDS011;67962;47.310;9.642;2024-01-15T02:03:12;15.57;;;6.30;;
78648;SDS011;67962;47.310;9.642;2024-01-15T02:05:37;12.02;;;6.68;;
78648;SDS011;67962;47.310;9.642;2024-01-15T02:08:05;9.32;;;5.43;;
78648;SDS011;67962;47.310;9.642;2024-01-15T02:10:31;11.43;;;6.40;;
78648;SDS011;67962;47.310;9.642;2024-01-15T02:12:57;10.60;;;5.97;;
78648;SDS011;67962;47.310;9.642;2024-01-15T02:15:23;12.15;;;6.47;;
78648;SDS011;67962;47.310;9.642;2024-01-15T02:20:24;12.15;;;7.28;;
78648;SDS011;67962;47.310;9.642;2024-01-15T02:22:51;15.75;;;8.40;;
78648;SDS011;67962;47.310;9.642;2024-01-15T02:25:17;17.25;;;9.00;;
78648;SDS011;67962;47.310;9.642;2024-01-15T02:27:43;16.33;;;9.13;;
78648;SDS011;67962;47.310;9.642;2024-01-15T02:30:11;16.58;;;8.93;;
78648;SDS011;67962;47.310;9.642;2024-01-15T02:32:37;20.58;;;8.43;;
78648;SDS011;67962;47.310;9.642;2024-01-15T02:35:03;14.93;;;8.07;;
78648;SDS011;67962;47.310;9.642;2024-01-15T02:37:29;15.10;;;7.80;;
78648;SDS011;67962;47.310;9.642;2024-01-15T02:39:55;17.33;;;8.75;;
78648;SDS011;67962;47.310;9.642;2024-01-15T02:42:21;17.35;;;8.85;;
78648;SDS011;67962;47.310;9.642;2024-01-15T02:44:46;14.65;;;8.68;;
78648;SDS011;67962;47.310;9.642;2024-01-15T02:47:13;20.20;;;9.10;;
78648;SDS011;67962;47.310;9.642;2024-01-15T02:49:39;17.73;;;9.27;;
78648;SDS011;67962;47.310;9.642;2024-01-15T02:52:05;20.40;;;9.85;;
78648;SDS011;67962;47.310;9.642;2024-01-15T02:54:31;19.35;;;9.10;;
78648;SDS011;67962;47.310;9.642;2024-01-15T02:56:56;20.88;;;9.43;;
78648;SDS011;67962;47.310;9.642;2024-01-15T02:59:22;19.05;;;9.93;;
78648;SDS011;67962;47.310;9.642;2024-01-15T03:01:48;16.92;;;9.43;;
78648;SDS011;67962;47.310;9.642;2024-01-15T03:04:13;19.55;;;10.35;;
78648;SDS011;67962;47.310;9.642;2024-01-15T03:06:39;21.25;;;9.82;;
78648;SDS011;67962;47.310;9.642;2024-01-15T03:09:05;19.83;;;10.25;;
78648;SDS011;67962;47.310;9.642;2024-01-15T03:11:36;19.65;;;9.70;;
78648;SDS011;67962;47.310;9.642;2024-01-15T03:14:03;20.42;;;10.05;;
78648;SDS011;67962;47.310;9.642;2024-01-15T03:16:29;17.40;;;10.13;;
78648;SDS011;67962;47.310;9.642;2024-01-15T03:18:55;16.95;;;9.70;;
78648;SDS011;67962;47.310;9.642;2024-01-15T03:21:20;16.75;;;9.30;;
78648;SDS011;67962;47.310;9.642;2024-01-15T03:23:46;21.25;;;10.35;;
78648;SDS011;67962;47.310;9.642;2024-01-15T03:26:11;15.95;;;9.55;;
78648;SDS011;67962;47.310;9.642;2024-01-15T03:28:37;18.52;;;9.32;;
78648;SDS011;67962;47.310;9.642;2024-01-15T03:31:03;23.30;;;9.27;;
78648;SDS011;67962;47.310;9.642;2024-01-15T03:33:28;18.17;;;8.60;;
78648;SDS011;67962;47.310;9.642;2024-01-15T03:35:54;16.73;;;8.98;;
78648;SDS011;67962;47.310;9.642;2024-01-15T03:38:20;18.38;;;9.38;;
78648;SDS011;67962;47.310;9.642;2024-01-15T03:40:45;17.85;;;9.05;;
78648;SDS011;67962;47.310;9.642;2024-01-15T03:43:12;18.67;;;9.23;;
78648;SDS011;67962;47.310;9.642;2024-01-15T03:45:37;15.50;;;9.73;;
78648;SDS011;67962;47.310;9.642;2024-01-15T03:48:03;17.38;;;9.07;;
78648;SDS011;67962;47.310;9.642;2024-01-15T03:50:29;17.40;;;9.75;;
78648;SDS011;67962;47.310;9.642;2024-01-15T03:52:54;17.85;;;9.43;;
78648;SDS011;67962;47.310;9.642;2024-01-15T03:55:20;16.42;;;8.80;;
78648;SDS011;67962;47.310;9.642;2024-01-15T03:57:46;17.52;;;9.75;;
78648;SDS011;67962;47.310;9.642;2024-01-15T04:00:12;13.52;;;8.10;;
78648;SDS011;67962;47.310;9.642;2024-01-15T04:02:39;16.95;;;8.88;;
78648;SDS011;67962;47.310;9.642;2024-01-15T04:05:05;17.67;;;9.30;;
78648;SDS011;67962;47.310;9.642;2024-01-15T04:07:30;13.80;;;8.30;;
78648;SDS011;67962;47.310;9.642;2024-01-15T04:09:56;15.20;;;8.88;;
78648;SDS011;67962;47.310;9.642;2024-01-15T04:12:22;16.27;;;8.85;;
78648;SDS011;67962;47.310;9.642;2024-01-15T04:14:47;18.13;;;8.88;;
78648;SDS011;67962;47.310;9.642;2024-01-15T04:17:13;17.75;;;9.05;;
78648;SDS011;67962;47.310;9.642;2024-01-15T04:19:39;16.75;;;9.27;;
78648;SDS011;67962;47.310;9.642;2024-01-15T04:22:04;16.67;;;9.20;;
78648;SDS011;67962;47.310;9.642;2024-01-15T04:24:31;13.48;;;7.80;;
78648;SDS011;67962;47.310;9.642;2024-01-15T04:26:57;14.05;;;8.45;;
78648;SDS011;67962;47.310;9.642;2024-01-15T04:29:23;14.82;;;8.10;;
78648;SDS011;67962;47.310;9.642;2024-01-15T04:31:48;13.70;;;7.90;;
78648;SDS011;67962;47.310;9.642;2024-01-15T04:34:14;15.88;;;8.38;;
78648;SDS011;67962;47.310;9.642;2024-01-15T04:36:40;12.30;;;7.90;;
78648;SDS011;67962;47.310;9.642;2024-01-15T04:39:07;13.50;;;8.18;;
78648;SDS011;67962;47.310;9.642;2024-01-15T04:41:33;14.18;;;8.20;;
78648;SDS011;67962;47.310;9.642;2024-01-15T04:43:58;15.98;;;8.73;;
78648;SDS011;67962;47.310;9.642;2024-01-15T04:46:26;16.02;;;8.35;;
78648;SDS011;67962;47.310;9.642;2024-01-15T04:48:52;16.38;;;9.35;;
78648;SDS011;67962;47.310;9.642;2024-01-15T04:51:17;17.15;;;9.40;;
78648;SDS011;67962;47.310;9.642;2024-01-15T04:53:43;17.85;;;8.73;;
78648;SDS011;67962;47.310;9.642;2024-01-15T04:56:09;81.72;;;9.73;;
78648;SDS011;67962;47.310;9.642;2024-01-15T04:58:35;17.55;;;8.05;;
78648;SDS011;67962;47.310;9.642;2024-01-15T05:01:01;16.20;;;7.90;;
78648;SDS011;67962;47.310;9.642;2024-01-15T05:03:26;17.23;;;7.97;;
78648;SDS011;67962;47.310;9.642;2024-01-15T05:05:52;16.05;;;8.02;;
78648;SDS011;67962;47.310;9.642;2024-01-15T05:08:18;15.45;;;7.60;;
78648;SDS011;67962;47.310;9.642;2024-01-15T05:10:43;17.02;;;8.10;;
78648;SDS011;67962;47.310;9.642;2024-01-15T05:13:09;56.88;;;8.98;;
78648;SDS011;67962;47.310;9.642;2024-01-15T05:15:35;18.77;;;8.68;;
78648;SDS011;67962;47.310;9.642;2024-01-15T05:18:01;16.40;;;8.93;;
78648;SDS011;67962;47.310;9.642;2024-01-15T05:20:26;21.15;;;9.02;;
78648;SDS011;67962;47.310;9.642;2024-01-15T05:22:52;17.77;;;8.23;;
78648;SDS011;67962;47.310;9.642;2024-01-15T05:25:18;15.63;;;8.35;;
78648;SDS011;67962;47.310;9.642;2024-01-15T05:27:43;15.80;;;7.90;;
78648;SDS011;67962;47.310;9.642;2024-01-15T05:30:09;20.15;;;8.55;;
78648;SDS011;67962;47.310;9.642;2024-01-15T05:32:35;19.65;;;9.02;;
78648;SDS011;67962;47.310;9.642;2024-01-15T05:35:01;16.23;;;8.30;;
78648;SDS011;67962;47.310;9.642;2024-01-15T05:37:27;15.57;;;7.90;;
78648;SDS011;67962;47.310;9.642;2024-01-15T05:39:52;15.25;;;6.95;;
78648;SDS011;67962;47.310;9.642;2024-01-15T05:42:18;21.13;;;8.25;;
78648;SDS011;67962;47.310;9.642;2024-01-15T05:44:44;19.92;;;8.15;;
78648;SDS011;67962;47.310;9.642;2024-01-15T05:47:09;15.13;;;7.55;;
78648;SDS011;67962;47.310;9.642;2024-01-15T05:49:35;14.38;;;7.10;;
78648;SDS011;67962;47.310;9.642;2024-01-15T05:52:01;11.13;;;5.82;;
78648;SDS011;67962;47.310;9.642;2024-01-15T05:54:27;11.07;;;5.50;;
78648;SDS011;67962;47.310;9.642;2024-01-15T05:56:52;9.02;;;4.97;;
78648;SDS011;67962;47.310;9.642;2024-01-15T05:59:18;9.10;;;4.65;;
78648;SDS011;67962;47.310;9.642;2024-01-15T06:01:44;10.98;;;4.70;;
78648;SDS011;67962;47.310;9.642;2024-01-15T06:04:09;8.75;;;4.78;;
78648;SDS011;67962;47.310;9.642;2024-01-15T06:06:35;6.82;;;3.47;;
78648;SDS011;67962;47.310;9.642;2024-01-15T06:09:01;8.77;;;4.45;;
78648;SDS011;67962;47.310;9.642;2024-01-15T06:11:30;9.60;;;4.30;;
78648;SDS011;67962;47.310;9.642;2024-01-15T06:13:56;9.23;;;4.15;;
78648;SDS011;67962;47.310;9.642;2024-01-15T06:16:23;7.63;;;4.60;;
78648;SDS011;67962;47.310;9.642;2024-01-15T06:18:49;7.75;;;4.07;;
78648;SDS011;67962;47.310;9.642;2024-01-15T06:21:15;8.38;;;4.05;;
78648;SDS011;67962;47.310;9.642;2024-01-15T06:23:41;10.30;;;4.50;;
78648;SDS011;67962;47.310;9.642;2024-01-15T06:26:07;9.10;;;4.30;;
78648;SDS011;67962;47.310;9.642;2024-01-15T06:28:33;8.60;;;3.80;;
78648;SDS011;67962;47.310;9.642;2024-01-15T06:30:58;68.05;;;5.10;;
78648;SDS011;67962;47.310;9.642;2024-01-15T06:33:24;9.20;;;3.97;;
78648;SDS011;67962;47.310;9.642;2024-01-15T06:35:50;7.90;;;3.97;;
78648;SDS011;67962;47.310;9.642;2024-01-15T06:38:15;7.45;;;3.80;;
78648;SDS011;67962;47.310;9.642;2024-01-15T06:40:41;8.82;;;3.92;;
78648;SDS011;67962;47.310;9.642;2024-01-15T06:43:12;9.10;;;4.15;;
78648;SDS011;67962;47.310;9.642;2024-01-15T06:45:39;6.57;;;3.75;;
78648;SDS011;67962;47.310;9.642;2024-01-15T06:48:04;7.63;;;3.97;;
78648;SDS011;67962;47.310;9.642;2024-01-15T06:50:30;7.93;;;4.25;;
78648;SDS011;67962;47.310;9.642;2024-01-15T06:52:56;9.68;;;4.15;;
78648;SDS011;67962;47.310;9.642;2024-01-15T06:55:22;7.35;;;3.88;;
78648;SDS011;67962;47.310;9.642;2024-01-15T06:57:47;6.22;;;3.58;;
78648;SDS011;67962;47.310;9.642;2024-01-15T07:00:13;7.45;;;3.53;;
78648;SDS011;67962;47.310;9.642;2024-01-15T07:02:39;7.57;;;3.72;;
78648;SDS011;67962;47.310;9.642;2024-01-15T07:05:05;6.45;;;3.28;;
78648;SDS011;67962;47.310;9.642;2024-01-15T07:07:31;5.57;;;3.00;;
78648;SDS011;67962;47.310;9.642;2024-01-15T07:09:57;6.60;;;3.33;;
78648;SDS011;67962;47.310;9.642;2024-01-15T07:12:22;7.30;;;3.40;;
78648;SDS011;67962;47.310;9.642;2024-01-15T07:14:48;6.47;;;3.60;;
78648;SDS011;67962;47.310;9.642;2024-01-15T07:17:14;7.07;;;3.78;;
78648;SDS011;67962;47.310;9.642;2024-01-15T07:19:40;6.75;;;3.42;;
78648;SDS011;67962;47.310;9.642;2024-01-15T07:22:06;6.38;;;3.53;;
78648;SDS011;67962;47.310;9.642;2024-01-15T07:24:32;8.30;;;3.90;;
78648;SDS011;67962;47.310;9.642;2024-01-15T07:27:00;6.38;;;3.65;;
78648;SDS011;67962;47.310;9.642;2024-01-15T07:29:26;8.23;;;3.40;;
78648;SDS011;67962;47.310;9.642;2024-01-15T07:31:52;7.45;;;3.78;;
78648;SDS011;67962;47.310;9.642;2024-01-15T07:34:18;8.07;;;4.05;;
78648;SDS011;67962;47.310;9.642;2024-01-15T07:36:44;7.82;;;4.00;;
78648;SDS011;67962;47.310;9.642;2024-01-15T07:39:10;6.75;;;3.85;;
78648;SDS011;67962;47.310;9.642;2024-01-15T07:41:36;8.95;;;4.40;;
78648;SDS011;67962;47.310;9.642;2024-01-15T07:44:02;27.10;;;4.03;;
78648;SDS011;67962;47.310;9.642;2024-01-15T07:46:28;7.32;;;3.70;;
78648;SDS011;67962;47.310;9.642;2024-01-15T07:48:54;6.85;;;3.35;;
78648;SDS011;67962;47.310;9.642;2024-01-15T07:51:23;10.68;;;4.47;;
78648;SDS011;67962;47.310;9.642;2024-01-15T07:53:49;7.93;;;4.25;;
78648;SDS011;67962;47.310;9.642;2024-01-15T07:56:15;10.32;;;4.00;;
78648;SDS011;67962;47.310;9.642;2024-01-15T07:58:42;6.82;;;4.18;;
78648;SDS011;67962;47.310;9.642;2024-01-15T08:01:07;8.60;;;4.13;;
78648;SDS011;67962;47.310;9.642;2024-01-15T08:03:33;7.60;;;4.18;;
78648;SDS011;67962;47.310;9.642;2024-01-15T08:05:59;13.23;;;8.32;;
78648;SDS011;67962;47.310;9.642;2024-01-15T08:08:25;8.70;;;4.10;;
78648;SDS011;67962;47.310;9.642;2024-01-15T08:10:53;6.82;;;3.80;;
78648;SDS011;67962;47.310;9.642;2024-01-15T08:13:19;7.53;;;3.95;;
78648;SDS011;67962;47.310;9.642;2024-01-15T08:15:45;6.93;;;3.67;;
78648;SDS011;67962;47.310;9.642;2024-01-15T08:18:11;6.78;;;3.95;;
78648;SDS011;67962;47.310;9.642;2024-01-15T08:20:37;7.72;;;3.85;;
78648;SDS011;67962;47.310;9.642;2024-01-15T08:23:03;6.85;;;4.10;;
78648;SDS011;67962;47.310;9.642;2024-01-15T08:25:29;8.48;;;3.88;;
78648;SDS011;67962;47.310;9.642;2024-01-15T08:27:56;7.55;;;3.70;;
78648;SDS011;67962;47.310;9.642;2024-01-15T08:30:22;26.92;;;4.35;;
78648;SDS011;67962;47.310;9.642;2024-01-15T08:32:52;7.10;;;3.95;;
78648;SDS011;67962;47.310;9.642;2024-01-15T08:35:21;8.02;;;3.85;;
78648;SDS011;67962;47.310;9.642;2024-01-15T08:37:50;8.70;;;4.32;;
78648;SDS011;67962;47.310;9.642;2024-01-15T08:40:16;6.20;;;3.67;;
78648;SDS011;67962;47.310;9.642;2024-01-15T08:42:42;8.18;;;3.65;;
78648;SDS011;67962;47.310;9.642;2024-01-15T08:45:08;9.57;;;4.28;;
78648;SDS011;67962;47.310;9.642;2024-01-15T08:47:34;7.05;;;3.72;;
78648;SDS011;67962;47.310;9.642;2024-01-15T08:50:00;11.02;;;5.10;;
78648;SDS011;67962;47.310;9.642;2024-01-15T08:52:27;11.23;;;4.82;;
78648;SDS011;67962;47.310;9.642;2024-01-15T08:54:52;7.80;;;4.32;;
78648;SDS011;67962;47.310;9.642;2024-01-15T08:57:18;8.70;;;3.85;;
78648;SDS011;67962;47.310;9.642;2024-01-15T08:59:43;7.68;;;4.13;;
78648;SDS011;67962;47.310;9.642;2024-01-15T09:02:10;6.72;;;3.40;;
78648;SDS011;67962;47.310;9.642;2024-01-15T09:04:35;7.13;;;3.63;;
78648;SDS011;67962;47.310;9.642;2024-01-15T09:07:01;7.25;;;3.63;;
78648;SDS011;67962;47.310;9.642;2024-01-15T09:09:27;7.50;;;4.35;;
78648;SDS011;67962;47.310;9.642;2024-01-15T09:11:53;7.57;;;3.28;;
78648;SDS011;67962;47.310;9.642;2024-01-15T09:14:18;6.95;;;4.10;;
78648;SDS011;67962;47.310;9.642;2024-01-15T09:16:46;8.60;;;4.50;;
78648;SDS011;67962;47.310;9.642;2024-01-15T09:19:11;7.82;;;4.07;;
78648;SDS011;67962;47.310;9.642;2024-01-15T09:21:38;7.55;;;4.00;;
78648;SDS011;67962;47.310;9.642;2024-01-15T09:24:04;7.53;;;3.13;;
78648;SDS011;67962;47.310;9.642;2024-01-15T09:26:29;6.55;;;4.15;;
78648;SDS011;67962;47.310;9.642;2024-01-15T09:28:57;6.80;;;3.80;;
78648;SDS011;67962;47.310;9.642;2024-01-15T09:31:22;6.22;;;3.70;;
78648;SDS011;67962;47.310;9.642;2024-01-15T09:33:48;10.73;;;3.90;;
78648;SDS011;67962;47.310;9.642;2024-01-15T09:36:16;7.78;;;3.92;;
78648;SDS011;67962;47.310;9.642;2024-01-15T09:38:42;7.50;;;4.03;;
78648;SDS011;67962;47.310;9.642;2024-01-15T09:41:07;8.55;;;4.00;;
78648;SDS011;67962;47.310;9.642;2024-01-15T09:43:33;7.88;;;3.55;;
78648;SDS011;67962;47.310;9.642;2024-01-15T09:45:59;7.35;;;3.80;;
78648;SDS011;67962;47.310;9.642;2024-01-15T09:48:26;9.23;;;4.05;;
78648;SDS011;67962;47.310;9.642;2024-01-15T09:50:52;5.13;;;3.50;;
78648;SDS011;67962;47.310;9.642;2024-01-15T09:53:18;15.73;;;6.22;;
78648;SDS011;67962;47.310;9.642;2024-01-15T09:55:46;7.93;;;4.03;;
78648;SDS011;67962;47.310;9.642;2024-01-15T09:58:12;10.15;;;4.53;;
78648;SDS011;67962;47.310;9.642;2024-01-15T10:00:38;8.73;;;4.35;;
78648;SDS011;67962;47.310;9.642;2024-01-15T10:03:06;10.45;;;5.13;;
78648;SDS011;67962;47.310;9.642;2024-01-15T10:05:33;8.02;;;3.63;;
78648;SDS011;67962;47.310;9.642;2024-01-15T10:07:58;7.78;;;3.90;;
78648;SDS011;67962;47.310;9.642;2024-01-15T10:10:25;7.28;;;3.58;;
78648;SDS011;67962;47.310;9.642;2024-01-15T10:12:51;7.55;;;3.42;;
78648;SDS011;67962;47.310;9.642;2024-01-15T10:15:21;7.25;;;3.40;;
78648;SDS011;67962;47.310;9.642;2024-01-15T10:17:48;6.72;;;3.35;;
78648;SDS011;67962;47.310;9.642;2024-01-15T10:20:15;6.70;;;3.47;;
78648;SDS011;67962;47.310;9.642;2024-01-15T10:22:41;7.05;;;3.50;;
78648;SDS011;67962;47.310;9.642;2024-01-15T10:25:12;5.85;;;3.40;;
78648;SDS011;67962;47.310;9.642;2024-01-15T10:27:39;5.82;;;2.92;;
78648;SDS011;67962;47.310;9.642;2024-01-15T10:30:08;9.18;;;3.13;;
78648;SDS011;67962;47.310;9.642;2024-01-15T10:32:34;6.47;;;3.28;;
78648;SDS011;67962;47.310;9.642;2024-01-15T10:35:00;5.13;;;3.08;;
78648;SDS011;67962;47.310;9.642;2024-01-15T10:37:26;7.05;;;3.15;;
78648;SDS011;67962;47.310;9.642;2024-01-15T10:39:52;4.43;;;2.83;;
78648;SDS011;67962;47.310;9.642;2024-01-15T10:42:17;4.72;;;2.78;;
78648;SDS011;67962;47.310;9.642;2024-01-15T10:44:44;6.22;;;2.65;;
78648;SDS011;67962;47.310;9.642;2024-01-15T10:47:12;5.85;;;2.78;;
78648;SDS011;67962;47.310;9.642;2024-01-15T10:49:38;5.22;;;2.97;;
78648;SDS011;67962;47.310;9.642;2024-01-15T10:52:04;4.38;;;2.75;;
78648;SDS011;67962;47.310;9.642;2024-01-15T10:54:31;4.55;;;2.63;;
78648;SDS011;67962;47.310;9.642;2024-01-15T10:56:57;4.32;;;2.72;;
78648;SDS011;67962;47.310;9.642;2024-01-15T10:59:23;4.75;;;3.00;;
78648;SDS011;67962;47.310;9.642;2024-01-15T11:01:49;6.75;;;2.70;;
78648;SDS011;67962;47.310;9.642;2024-01-15T11:04:18;5.63;;;2.72;;
78648;SDS011;67962;47.310;9.642;2024-01-15T11:06:47;4.70;;;2.67;;
78648;SDS011;67962;47.310;9.642;2024-01-15T11:09:15;5.38;;;2.85;;
78648;SDS011;67962;47.310;9.642;2024-01-15T11:11:46;6.22;;;3.00;;
78648;SDS011;67962;47.310;9.642;2024-01-15T11:17:09;4.13;;;2.65;;
78648;SDS011;67962;47.310;9.642;2024-01-15T11:19:36;5.18;;;2.80;;
78648;SDS011;67962;47.310;9.642;2024-01-15T11:22:53;38.40;;;9.75;;
78648;SDS011;67962;47.310;9.642;2024-01-15T11:25:18;6.20;;;3.15;;
78648;SDS011;67962;47.310;9.642;2024-01-15T11:27:49;5.25;;;2.63;;
78648;SDS011;67962;47.310;9.642;2024-01-15T11:30:17;5.75;;;2.38;;
78648;SDS011;67962;47.310;9.642;2024-01-15T11:32:44;7.97;;;3.17;;
78648;SDS011;67962;47.310;9.642;2024-01-15T11:35:11;2.72;;;2.08;;
78648;SDS011;67962;47.310;9.642;2024-01-15T11:40:20;4.28;;;2.45;;
78648;SDS011;67962;47.310;9.642;2024-01-15T11:42:47;3.50;;;2.03;;
78648;SDS011;67962;47.310;9.642;2024-01-15T11:45:20;3.05;;;1.95;;
78648;SDS011;67962;47.310;9.642;2024-01-15T11:50:21;6.43;;;3.15;;
78648;SDS011;67962;47.310;9.642;2024-01-15T11:52:51;3.60;;;2.15;;
78648;SDS011;67962;47.310;9.642;2024-01-15T11:55:35;5.18;;;1.77;;
78648;SDS011;67962;47.310;9.642;2024-01-15T11:58:10;4.22;;;1.98;;
78648;SDS011;67962;47.310;9.642;2024-01-15T12:00:42;4.88;;;2.03;;
78648;SDS011;67962;47.310;9.642;2024-01-15T12:03:20;3.60;;;2.17;;
78648;SDS011;67962;47.310;9.642;2024-01-15T12:05:49;5.30;;;2.40;;
78648;SDS011;67962;47.310;9.642;2024-01-15T12:08:20;4.70;;;2.25;;
78648;SDS011;67962;47.310;9.642;2024-01-15T12:10:47;4.13;;;2.47;;
78648;SDS011;67962;47.310;9.642;2024-01-15T12:13:13;21.13;;;5.50;;
78648;SDS011;67962;47.310;9.642;2024-01-15T12:15:43;11.38;;;4.43;;
78648;SDS011;67962;47.310;9.642;2024-01-15T12:18:10;10.10;;;3.90;;
78648;SDS011;67962;47.310;9.642;2024-01-15T12:20:37;6.57;;;2.53;;
78648;SDS011;67962;47.310;9.642;2024-01-15T12:23:04;4.32;;;1.90;;
78648;SDS011;67962;47.310;9.642;2024-01-15T12:25:33;4.13;;;2.30;;
78648;SDS011;67962;47.310;9.642;2024-01-15T12:28:00;9.43;;;2.88;;
78648;SDS011;67962;47.310;9.642;2024-01-15T12:30:26;5.43;;;3.47;;
78648;SDS011;67962;47.310;9.642;2024-01-15T12:32:52;7.05;;;3.88;;
78648;SDS011;67962;47.310;9.642;2024-01-15T12:35:19;9.65;;;3.58;;
78648;SDS011;67962;47.310;9.642;2024-01-15T12:37:45;14.55;;;5.55;;
78648;SDS011;67962;47.310;9.642;2024-01-15T12:40:12;29.30;;;11.05;;
78648;SDS011;67962;47.310;9.642;2024-01-15T12:42:43;15.85;;;6.80;;
78648;SDS011;67962;47.310;9.642;2024-01-15T12:45:09;22.45;;;7.63;;
78648;SDS011;67962;47.310;9.642;2024-01-15T12:47:37;12.15;;;5.22;;
78648;SDS011;67962;47.310;9.642;2024-01-15T12:50:05;8.85;;;4.13;;
78648;SDS011;67962;47.310;9.642;2024-01-15T12:52:34;12.30;;;4.20;;
78648;SDS011;67962;47.310;9.642;2024-01-15T12:55:00;7.07;;;4.20;;
78648;SDS011;67962;47.310;9.642;2024-01-15T12:57:25;8.80;;;4.28;;
78648;SDS011;67962;47.310;9.642;2024-01-15T12:59:51;8.00;;;4.43;;
78648;SDS011;67962;47.310;9.642;2024-01-15T13:02:19;6.30;;;4.15;;
78648;SDS011;67962;47.310;9.642;2024-01-15T13:04:45;6.20;;;3.50;;
78648;SDS011;67962;47.310;9.642;2024-01-15T13:07:11;5.82;;;3.35;;
78648;SDS011;67962;47.310;9.642;2024-01-15T13:09:36;7.88;;;4.00;;
78648;SDS011;67962;47.310;9.642;2024-01-15T13:12:02;9.38;;;4.07;;
78648;SDS011;67962;47.310;9.642;2024-01-15T13:14:28;6.50;;;3.58;;
78648;SDS011;67962;47.310;9.642;2024-01-15T13:16:54;7.00;;;3.03;;
78648;SDS011;67962;47.310;9.642;2024-01-15T13:19:20;7.25;;;3.78;;
78648;SDS011;67962;47.310;9.642;2024-01-15T13:21:47;9.63;;;3.70;;
78648;SDS011;67962;47.310;9.642;2024-01-15T13:24:13;6.45;;;3.15;;
78648;SDS011;67962;47.310;9.642;2024-01-15T13:26:39;3.10;;;2.25;;
78648;SDS011;67962;47.310;9.642;2024-01-15T13:29:04;2.88;;;1.60;;
78648;SDS011;67962;47.310;9.642;2024-01-15T13:31:31;4.60;;;2.00;;
78648;SDS011;67962;47.310;9.642;2024-01-15T13:33:57;3.13;;;2.20;;
78648;SDS011;67962;47.310;9.642;2024-01-15T13:36:23;2.33;;;1.70;;
78648;SDS011;67962;47.310;9.642;2024-01-15T13:38:49;4.13;;;2.55;;
78648;SDS011;67962;47.310;9.642;2024-01-15T13:41:16;7.65;;;3.50;;
78648;SDS011;67962;47.310;9.642;2024-01-15T13:43:45;6.40;;;3.40;;
78648;SDS011;67962;47.310;9.642;2024-01-15T13:46:11;6.07;;;3.33;;
78648;SDS011;67962;47.310;9.642;2024-01-15T13:48:37;5.65;;;3.42;;
78648;SDS011;67962;47.310;9.642;2024-01-15T13:51:02;3.65;;;2.25;;
78648;SDS011;67962;47.310;9.642;2024-01-15T13:53:28;4.25;;;2.30;;
78648;SDS011;67962;47.310;9.642;2024-01-15T13:55:54;6.15;;;3.20;;
78648;SDS011;67962;47.310;9.642;2024-01-15T13:58:20;9.27;;;3.10;;
78648;SDS011;67962;47.310;9.642;2024-01-15T14:00:46;10.52;;;3.58;;
78648;SDS011;67962;47.310;9.642;2024-01-15T14:03:13;6.88;;;3.63;;
78648;SDS011;67962;47.310;9.642;2024-01-15T14:05:39;5.75;;;3.30;;
78648;SDS011;67962;47.310;9.642;2024-01-15T14:08:05;2.60;;;1.70;;
78648;SDS011;67962;47.310;9.642;2024-01-15T14:10:31;2.90;;;1.25;;
78648;SDS011;67962;47.310;9.642;2024-01-15T14:12:57;2.70;;;1.50;;
78648;SDS011;67962;47.310;9.642;2024-01-15T14:15:23;6.95;;;3.03;;
78648;SDS011;67962;47.310;9.642;2024-01-15T14:17:48;3.85;;;2.08;;
78648;SDS011;67962;47.310;9.642;2024-01-15T14:20:14;3.13;;;2.05;;
78648;SDS011;67962;47.310;9.642;2024-01-15T14:22:40;2.03;;;1.40;;
78648;SDS011;67962;47.310;9.642;2024-01-15T14:25:06;1.77;;;1.00;;
78648;SDS011;67962;47.310;9.642;2024-01-15T14:27:33;1.75;;;1.10;;
78648;SDS011;67962;47.310;9.642;2024-01-15T14:29:58;2.97;;;1.42;;
78648;SDS011;67962;47.310;9.642;2024-01-15T14:32:24;2.42;;;1.60;;
78648;SDS011;67962;47.310;9.642;2024-01-15T14:34:50;7.13;;;3.38;;
78648;SDS011;67962;47.310;9.642;2024-01-15T14:37:15;4.90;;;2.75;;
78648;SDS011;67962;47.310;9.642;2024-01-15T14:39:41;5.47;;;2.85;;
78648;SDS011;67962;47.310;9.642;2024-01-15T14:42:08;8.35;;;2.78;;
78648;SDS011;67962;47.310;9.642;2024-01-15T14:44:33;9.40;;;3.15;;
78648;SDS011;67962;47.310;9.642;2024-01-15T14:47:00;5.53;;;3.13;;